Accueil
METAR-TAF:

METAR-TAF

Aéroports :

Anvers, Belgique

Aéroport d'Anvers

latitude: 51-12N, longitude: 004-28E, altitude: 12 m

Observation

Le bulletin a été fait il y a 16 minutes, à 02:20 UTC
Vent 7 kt de sud, variant entre sud et sud-ouest
Température 11°C
Humidité 76%
Pression 1004 hPa
Visibilité 10 km ou plus

METAR: EBAW 010220Z AUTO 19007KT 170V230 9999 // BKN027/// OVC033/// 11/07 Q1004

Heure: 04:36 (02:36 UTC)

Prévision

Le bulletin a été fait il y a 3 heures et 31 minutes, à 23:05 UTC
Prévision valable du 01 à 00 UTC au 01 à 09 UTC
Vent 10 kt de sud
Visibilité 10 km ou plus
Nuages épars à une hauteur de 2000 ft
Nuages épars à une hauteur de 4500 ft
Probabilité 30% :
Temporairement
du 01 à 00 UTC au 01 à 03 UTC
Visibilité: 4000 m
pluie, averses de pluie

TAF: EBAW 302305Z 0100/0109 18010KT 9999 SCT020 SCT045 PROB30 TEMPO 0100/0103 4000 RA SHRA

Observations et prévisions météorologiques de plus de 4000 aéroports (messages METAR et TAF).

Les stations disponibles sont représentées par des disques jaunes et rouges sur la carte.

Passer la souris dessus pour voir le nom de la station.

Cliquer dessus pour voir les observations et prévisions météorologiques.

Pour changer de carte: cliquez sur les boutons verts avec une croix noire pour zoomer, sur le bouton vert avec un tiret pour effectuer un zoom arrière, ou sur les flèches vertes pour les cartes adjacentes.


METAR-TAF: